Aviation Digital Data Service (ADDS)

Output produced by METARs form (1345 UTC 21 August 2019)
found at http://www.aviationweather.gov/metar/data/
 
METAR text: ENBO 211320Z 24019KT 9999 -SHRA FEW010 SCT020TCU BKN035 13/11 Q1014 TEMPO SHRA BKN020CB
Conditions at: ENBO (BODO VI (CIV/MIL, NO) observed 1320 UTC 21 August 2019
Temperature: 13.0°C (55°F)
Dewpoint: 11.0°C (52°F) [RH = 88%]
Pressure (altimeter): 29.94 inches Hg (1014.0 mb)
Winds: from the WSW (240 degrees) at 22 MPH (19 knots; 9.8 m/s)
Visibility: 6 or more miles (10+ km)
Ceiling: 3500 feet AGL
Clouds: few clouds at 1000 feet AGL
scattered clouds at 2000 feet AGL
broken clouds at 3500 feet AGL
Weather: -SHRA  (light rain showers)

METAR text: ENBO 211250Z 24019KT 9999 -SHRA FEW010 SCT020TCU BKN035 13/12 Q1013 TEMPO SHRA BKN020CB
Conditions at: ENBO (BODO VI (CIV/MIL, NO) observed 1250 UTC 21 August 2019
Temperature: 13.0°C (55°F)
Dewpoint: 12.0°C (54°F) [RH = 94%]
Pressure (altimeter): 29.91 inches Hg (1013.0 mb)
Winds: from the WSW (240 degrees) at 22 MPH (19 knots; 9.8 m/s)
Visibility: 6 or more miles (10+ km)
Ceiling: 3500 feet AGL
Clouds: few clouds at 1000 feet AGL
scattered clouds at 2000 feet AGL
broken clouds at 3500 feet AGL
Weather: -SHRA  (light rain showers)

METAR text: ENBO 211220Z 23016KT 9999 -SHRA FEW012 FEW020TCU BKN035 15/11 Q1013 TEMPO SHRA BKN020CB
Conditions at: ENBO (BODO VI (CIV/MIL, NO) observed 1220 UTC 21 August 2019
Temperature: 15.0°C (59°F)
Dewpoint: 11.0°C (52°F) [RH = 77%]
Pressure (altimeter): 29.91 inches Hg (1013.0 mb)
Winds: from the SW (230 degrees) at 18 MPH (16 knots; 8.2 m/s)
Visibility: 6 or more miles (10+ km)
Ceiling: 3500 feet AGL
Clouds: few clouds at 1200 feet AGL
few clouds at 2000 feet AGL
broken clouds at 3500 feet AGL
Weather: -SHRA  (light rain showers)

METAR text: ENBO 211150Z 22017KT 9999 FEW015 SCT035 BKN050 15/11 Q1013 TEMPO 22020G30KT SHRA BKN020CB
Conditions at: ENBO (BODO VI (CIV/MIL, NO) observed 1150 UTC 21 August 2019
Temperature: 15.0°C (59°F)
Dewpoint: 11.0°C (52°F) [RH = 77%]
Pressure (altimeter): 29.91 inches Hg (1013.0 mb)
Winds: from the SW (220 degrees) at 20 MPH (17 knots; 8.7 m/s)
Visibility: 6 or more miles (10+ km)
Ceiling: 5000 feet AGL
Clouds: few clouds at 1500 feet AGL
scattered clouds at 3500 feet AGL
broken clouds at 5000 feet AGL
Weather: no significant weather observed at this time

METAR text: ENBO 211120Z 22020KT 9999 VCSH FEW015CB SCT025 BKN040 15/10 Q1012 TEMPO 22020G30KT SHRA BKN020CB
Conditions at: ENBO (BODO VI (CIV/MIL, NO) observed 1120 UTC 21 August 2019
Temperature: 15.0°C (59°F)
Dewpoint: 10.0°C (50°F) [RH = 72%]
Pressure (altimeter): 29.88 inches Hg (1012.0 mb)
Winds: from the SW (220 degrees) at 23 MPH (20 knots; 10.3 m/s)
Visibility: 6 or more miles (10+ km)
Ceiling: 4000 feet AGL
Clouds: few clouds at 1500 feet AGL
scattered clouds at 2500 feet AGL
broken clouds at 4000 feet AGL
Weather: VCSH  (showers in vicinity)

METAR text: ENBO 211050Z 22018KT 9999 FEW015 FEW025CB SCT040 15/11 Q1012 TEMPO 22020G30KT SHRA BKN020CB
Conditions at: ENBO (BODO VI (CIV/MIL, NO) observed 1050 UTC 21 August 2019
Temperature: 15.0°C (59°F)
Dewpoint: 11.0°C (52°F) [RH = 77%]
Pressure (altimeter): 29.88 inches Hg (1012.0 mb)
Winds: from the SW (220 degrees) at 21 MPH (18 knots; 9.3 m/s)
Visibility: 6 or more miles (10+ km)
Ceiling: at least 12,000 feet AGL
Clouds: few clouds at 1500 feet AGL
few clouds at 2500 feet AGL
scattered clouds at 4000 feet AGL
Weather: no significant weather observed at this time

METAR text: ENBO 211020Z 21012KT 9999 FEW020TCU BKN040 14/11 Q1012 TEMPO 22020G30KT SHRA BKN020CB
Conditions at: ENBO (BODO VI (CIV/MIL, NO) observed 1020 UTC 21 August 2019
Temperature: 14.0°C (57°F)
Dewpoint: 11.0°C (52°F) [RH = 82%]
Pressure (altimeter): 29.88 inches Hg (1012.0 mb)
Winds: from the SSW (210 degrees) at 14 MPH (12 knots; 6.2 m/s)
Visibility: 6 or more miles (10+ km)
Ceiling: 4000 feet AGL
Clouds: few clouds at 2000 feet AGL
broken clouds at 4000 feet AGL
Weather: no significant weather observed at this time

METAR text: ENBO 210950Z 22014KT 9999 FEW020TCU SCT035 15/11 Q1012 TEMPO 22020G30KT SHRA BKN020CB
Conditions at: ENBO (BODO VI (CIV/MIL, NO) observed 0950 UTC 21 August 2019
Temperature: 15.0°C (59°F)
Dewpoint: 11.0°C (52°F) [RH = 77%]
Pressure (altimeter): 29.88 inches Hg (1012.0 mb)
Winds: from the SW (220 degrees) at 16 MPH (14 knots; 7.2 m/s)
Visibility: 6 or more miles (10+ km)
Ceiling: at least 12,000 feet AGL
Clouds: few clouds at 2000 feet AGL
scattered clouds at 3500 feet AGL
Weather: no significant weather observed at this time

METAR text: ENBO 210920Z 21010KT 9999 FEW015 BKN038 14/11 Q1012 TEMPO 22020G30KT SHRA BKN020CB
Conditions at: ENBO (BODO VI (CIV/MIL, NO) observed 0920 UTC 21 August 2019
Temperature: 14.0°C (57°F)
Dewpoint: 11.0°C (52°F) [RH = 82%]
Pressure (altimeter): 29.88 inches Hg (1012.0 mb)
Winds: from the SSW (210 degrees) at 12 MPH (10 knots; 5.1 m/s)
Visibility: 6 or more miles (10+ km)
Ceiling: 3800 feet AGL
Clouds: few clouds at 1500 feet AGL
broken clouds at 3800 feet AGL
Weather: no significant weather observed at this time

METAR text: ENBO 210850Z 21008KT 9999 VCSH FEW015 FEW025TCU SCT035 14/11 Q1011 TEMPO 22020G30KT SHRA BKN020CB
Conditions at: ENBO (BODO VI (CIV/MIL, NO) observed 0850 UTC 21 August 2019
Temperature: 14.0°C (57°F)
Dewpoint: 11.0°C (52°F) [RH = 82%]
Pressure (altimeter): 29.85 inches Hg (1011.0 mb)
Winds: from the SSW (210 degrees) at 9 MPH (8 knots; 4.1 m/s)
Visibility: 6 or more miles (10+ km)
Ceiling: at least 12,000 feet AGL
Clouds: few clouds at 1500 feet AGL
few clouds at 2500 feet AGL
scattered clouds at 3500 feet AGL
Weather: VCSH  (showers in vicinity)

METAR text: ENBO 210820Z 21013KT 9999 -SHRA FEW015 FEW025TCU BKN035 13/11 Q1011 TEMPO 22020G30KT SHRA BKN020CB
Conditions at: ENBO (BODO VI (CIV/MIL, NO) observed 0820 UTC 21 August 2019
Temperature: 13.0°C (55°F)
Dewpoint: 11.0°C (52°F) [RH = 88%]
Pressure (altimeter): 29.85 inches Hg (1011.0 mb)
Winds: from the SSW (210 degrees) at 15 MPH (13 knots; 6.7 m/s)
Visibility: 6 or more miles (10+ km)
Ceiling: 3500 feet AGL
Clouds: few clouds at 1500 feet AGL
few clouds at 2500 feet AGL
broken clouds at 3500 feet AGL
Weather: -SHRA  (light rain showers)

METAR text: ENBO 210750Z 20009KT 9999 VCSH FEW015 FEW025TCU BKN035 14/10 Q1011 TEMPO 22020G30KT SHRA BKN020CB
Conditions at: ENBO (BODO VI (CIV/MIL, NO) observed 0750 UTC 21 August 2019
Temperature: 14.0°C (57°F)
Dewpoint: 10.0°C (50°F) [RH = 77%]
Pressure (altimeter): 29.85 inches Hg (1011.0 mb)
Winds: from the SSW (200 degrees) at 10 MPH (9 knots; 4.6 m/s)
Visibility: 6 or more miles (10+ km)
Ceiling: 3500 feet AGL
Clouds: few clouds at 1500 feet AGL
few clouds at 2500 feet AGL
broken clouds at 3500 feet AGL
Weather: VCSH  (showers in vicinity)

METAR text: ENBO 210720Z 18009KT 9999 VCSH FEW020CB SCT030 BKN045 14/09 Q1011 TEMPO 22020G35KT SHRA BKN020CB
Conditions at: ENBO (BODO VI (CIV/MIL, NO) observed 0720 UTC 21 August 2019
Temperature: 14.0°C (57°F)
Dewpoint: 9.0°C (48°F) [RH = 72%]
Pressure (altimeter): 29.85 inches Hg (1011.0 mb)
Winds: from the S (180 degrees) at 10 MPH (9 knots; 4.6 m/s)
Visibility: 6 or more miles (10+ km)
Ceiling: 4500 feet AGL
Clouds: few clouds at 2000 feet AGL
scattered clouds at 3000 feet AGL
broken clouds at 4500 feet AGL
Weather: VCSH  (showers in vicinity)

METAR text: ENBO 210650Z 16006KT 9999 VCSH FEW020TCU BKN040 14/10 Q1011 BECMG 20018KT TEMPO 22020G35KT SHRA BKN020CB
Conditions at: ENBO (BODO VI (CIV/MIL, NO) observed 0650 UTC 21 August 2019
Temperature: 14.0°C (57°F)
Dewpoint: 10.0°C (50°F) [RH = 77%]
Pressure (altimeter): 29.85 inches Hg (1011.0 mb)
Winds: from the SSE (160 degrees) at 7 MPH (6 knots; 3.1 m/s)
Visibility: 6 or more miles (10+ km)
Ceiling: 4000 feet AGL
Clouds: few clouds at 2000 feet AGL
broken clouds at 4000 feet AGL
Weather: VCSH  (showers in vicinity)

METAR text: ENBO 210620Z 19006KT 9999 VCSH FEW020TCU BKN040 14/10 Q1010 BECMG 20018KT TEMPO 22020G35KT SHRA BKN020CB
Conditions at: ENBO (BODO VI (CIV/MIL, NO) observed 0620 UTC 21 August 2019
Temperature: 14.0°C (57°F)
Dewpoint: 10.0°C (50°F) [RH = 77%]
Pressure (altimeter): 29.82 inches Hg (1010.0 mb)
Winds: from the S (190 degrees) at 7 MPH (6 knots; 3.1 m/s)
Visibility: 6 or more miles (10+ km)
Ceiling: 4000 feet AGL
Clouds: few clouds at 2000 feet AGL
broken clouds at 4000 feet AGL
Weather: VCSH  (showers in vicinity)

METAR text: ENBO 210550Z 15003KT 9999 VCSH SCT020TCU BKN040 14/11 Q1010 BECMG 20018KT TEMPO 22020G35KT SHRA BKN020CB
Conditions at: ENBO (BODO VI (CIV/MIL, NO) observed 0550 UTC 21 August 2019
Temperature: 14.0°C (57°F)
Dewpoint: 11.0°C (52°F) [RH = 82%]
Pressure (altimeter): 29.82 inches Hg (1010.0 mb)
Winds: from the SSE (150 degrees) at 3 MPH (3 knots; 1.5 m/s)
Visibility: 6 or more miles (10+ km)
Ceiling: 4000 feet AGL
Clouds: scattered clouds at 2000 feet AGL
broken clouds at 4000 feet AGL
Weather: VCSH  (showers in vicinity)

METAR text: ENBO 210520Z 20004KT 110V240 9999 FEW020TCU BKN045 13/10 Q1010 TEMPO 22015KT SHRA BKN020CB
Conditions at: ENBO (BODO VI (CIV/MIL, NO) observed 0520 UTC 21 August 2019
Temperature: 13.0°C (55°F)
Dewpoint: 10.0°C (50°F) [RH = 82%]
Pressure (altimeter): 29.82 inches Hg (1010.0 mb)
Winds: from the SSW (200 degrees) at 5 MPH (4 knots; 2.1 m/s)
Visibility: 6 or more miles (10+ km)
Ceiling: 4500 feet AGL
Clouds: few clouds at 2000 feet AGL
broken clouds at 4500 feet AGL
Weather: no significant weather observed at this time

METAR text: ENBO 210450Z 19005KT 9999 VCSH SCT020TCU BKN040 12/11 Q1010 TEMPO 22015KT SHRA BKN020CB
Conditions at: ENBO (BODO VI (CIV/MIL, NO) observed 0450 UTC 21 August 2019
Temperature: 12.0°C (54°F)
Dewpoint: 11.0°C (52°F) [RH = 94%]
Pressure (altimeter): 29.82 inches Hg (1010.0 mb)
Winds: from the S (190 degrees) at 6 MPH (5 knots; 2.6 m/s)
Visibility: 6 or more miles (10+ km)
Ceiling: 4000 feet AGL
Clouds: scattered clouds at 2000 feet AGL
broken clouds at 4000 feet AGL
Weather: VCSH  (showers in vicinity)

METAR text: ENBO 210420Z 07003KT 9999 VCSH SCT020TCU BKN040 12/11 Q1010 TEMPO 22015KT SHRA BKN020CB
Conditions at: ENBO (BODO VI (CIV/MIL, NO) observed 0420 UTC 21 August 2019
Temperature: 12.0°C (54°F)
Dewpoint: 11.0°C (52°F) [RH = 94%]
Pressure (altimeter): 29.82 inches Hg (1010.0 mb)
Winds: from the ENE (70 degrees) at 3 MPH (3 knots; 1.5 m/s)
Visibility: 6 or more miles (10+ km)
Ceiling: 4000 feet AGL
Clouds: scattered clouds at 2000 feet AGL
broken clouds at 4000 feet AGL
Weather: VCSH  (showers in vicinity)

METAR text: ENBO 210350Z 19004KT 9999 VCSH FEW015TCU BKN050 12/11 Q1010 TEMPO SHRA BKN020CB
Conditions at: ENBO (BODO VI (CIV/MIL, NO) observed 0350 UTC 21 August 2019
Temperature: 12.0°C (54°F)
Dewpoint: 11.0°C (52°F) [RH = 94%]
Pressure (altimeter): 29.82 inches Hg (1010.0 mb)
Winds: from the S (190 degrees) at 5 MPH (4 knots; 2.1 m/s)
Visibility: 6 or more miles (10+ km)
Ceiling: 5000 feet AGL
Clouds: few clouds at 1500 feet AGL
broken clouds at 5000 feet AGL
Weather: VCSH  (showers in vicinity)

METAR text: ENBO 210320Z 21006KT 9999 VCSH FEW015CB BKN050 12/11 Q1010
Conditions at: ENBO (BODO VI (CIV/MIL, NO) observed 0320 UTC 21 August 2019
Temperature: 12.0°C (54°F)
Dewpoint: 11.0°C (52°F) [RH = 94%]
Pressure (altimeter): 29.82 inches Hg (1010.0 mb)
Winds: from the SSW (210 degrees) at 7 MPH (6 knots; 3.1 m/s)
Visibility: 6 or more miles (10+ km)
Ceiling: 5000 feet AGL
Clouds: few clouds at 1500 feet AGL
broken clouds at 5000 feet AGL
Weather: VCSH  (showers in vicinity)

METAR text: ENBO 210250Z 24004KT 9999 -SHRA FEW025CB BKN050 12/11 Q1010
Conditions at: ENBO (BODO VI (CIV/MIL, NO) observed 0250 UTC 21 August 2019
Temperature: 12.0°C (54°F)
Dewpoint: 11.0°C (52°F) [RH = 94%]
Pressure (altimeter): 29.82 inches Hg (1010.0 mb)
Winds: from the WSW (240 degrees) at 5 MPH (4 knots; 2.1 m/s)
Visibility: 6 or more miles (10+ km)
Ceiling: 5000 feet AGL
Clouds: few clouds at 2500 feet AGL
broken clouds at 5000 feet AGL
Weather: -SHRA  (light rain showers)

METAR text: ENBO 210150Z 11003KT 9999 SCT020CB BKN060 12/10 Q1009
Conditions at: ENBO (BODO VI (CIV/MIL, NO) observed 0150 UTC 21 August 2019
Temperature: 12.0°C (54°F)
Dewpoint: 10.0°C (50°F) [RH = 88%]
Pressure (altimeter): 29.79 inches Hg (1009.0 mb)
Winds: from the ESE (110 degrees) at 3 MPH (3 knots; 1.5 m/s)
Visibility: 6 or more miles (10+ km)
Ceiling: 6000 feet AGL
Clouds: scattered clouds at 2000 feet AGL
broken clouds at 6000 feet AGL
Weather: no significant weather observed at this time

METAR text: ENBO 210050Z VRB02KT 9999 FEW040 BKN060 12/10 Q1009
Conditions at: ENBO (BODO VI (CIV/MIL, NO) observed 0050 UTC 21 August 2019
Temperature: 12.0°C (54°F)
Dewpoint: 10.0°C (50°F) [RH = 88%]
Pressure (altimeter): 29.79 inches Hg (1009.0 mb)
Winds: variable direction winds at 2 MPH (2 knots; 1.0 m/s)
Visibility: 6 or more miles (10+ km)
Ceiling: 6000 feet AGL
Clouds: few clouds at 4000 feet AGL
broken clouds at 6000 feet AGL
Weather: no significant weather observed at this time

METAR text: ENBO 202350Z 09003KT 9999 FEW050 BKN070 12/10 Q1009
Conditions at: ENBO (BODO VI (CIV/MIL, NO) observed 2350 UTC 20 August 2019
Temperature: 12.0°C (54°F)
Dewpoint: 10.0°C (50°F) [RH = 88%]
Pressure (altimeter): 29.79 inches Hg (1009.0 mb)
Winds: from the E (90 degrees) at 3 MPH (3 knots; 1.5 m/s)
Visibility: 6 or more miles (10+ km)
Ceiling: 7000 feet AGL
Clouds: few clouds at 5000 feet AGL
broken clouds at 7000 feet AGL
Weather: no significant weather observed at this time

METAR text: ENBO 202250Z 13005KT 9999 FEW040 BKN060 13/11 Q1009 NOSIG
Conditions at: ENBO (BODO VI (CIV/MIL, NO) observed 2250 UTC 20 August 2019
Temperature: 13.0°C (55°F)
Dewpoint: 11.0°C (52°F) [RH = 88%]
Pressure (altimeter): 29.79 inches Hg (1009.0 mb)
Winds: from the SE (130 degrees) at 6 MPH (5 knots; 2.6 m/s)
Visibility: 6 or more miles (10+ km)
Ceiling: 6000 feet AGL
Clouds: few clouds at 4000 feet AGL
broken clouds at 6000 feet AGL
Weather: no significant weather observed at this time

METAR text: ENBO 202150Z 10009KT 9999 FEW020 SCT060 12/11 Q1008 NOSIG
Conditions at: ENBO (BODO VI (CIV/MIL, NO) observed 2150 UTC 20 August 2019
Temperature: 12.0°C (54°F)
Dewpoint: 11.0°C (52°F) [RH = 94%]
Pressure (altimeter): 29.76 inches Hg (1008.0 mb)
Winds: from the E (100 degrees) at 10 MPH (9 knots; 4.6 m/s)
Visibility: 6 or more miles (10+ km)
Ceiling: at least 12,000 feet AGL
Clouds: few clouds at 2000 feet AGL
scattered clouds at 6000 feet AGL
Weather: no significant weather observed at this time

METAR text: ENBO 202120Z 10010KT 9999 VCSH FEW020 SCT060 13/11 Q1008 TEMPO SHRA FEW020CB
Conditions at: ENBO (BODO VI (CIV/MIL, NO) observed 2120 UTC 20 August 2019
Temperature: 13.0°C (55°F)
Dewpoint: 11.0°C (52°F) [RH = 88%]
Pressure (altimeter): 29.76 inches Hg (1008.0 mb)
Winds: from the E (100 degrees) at 12 MPH (10 knots; 5.1 m/s)
Visibility: 6 or more miles (10+ km)
Ceiling: at least 12,000 feet AGL
Clouds: few clouds at 2000 feet AGL
scattered clouds at 6000 feet AGL
Weather: VCSH  (showers in vicinity)

METAR text: ENBO 202050Z 10010KT 9999 VCSH FEW020 SCT075 13/11 Q1008 TEMPO SHRA FEW020CB
Conditions at: ENBO (BODO VI (CIV/MIL, NO) observed 2050 UTC 20 August 2019
Temperature: 13.0°C (55°F)
Dewpoint: 11.0°C (52°F) [RH = 88%]
Pressure (altimeter): 29.76 inches Hg (1008.0 mb)
Winds: from the E (100 degrees) at 12 MPH (10 knots; 5.1 m/s)
Visibility: 6 or more miles (10+ km)
Ceiling: at least 12,000 feet AGL
Clouds: few clouds at 2000 feet AGL
scattered clouds at 7500 feet AGL
Weather: VCSH  (showers in vicinity)

METAR text: ENBO 202020Z 10010KT 9999 FEW050 BKN080 13/11 Q1008 TEMPO SHRA FEW020CB
Conditions at: ENBO (BODO VI (CIV/MIL, NO) observed 2020 UTC 20 August 2019
Temperature: 13.0°C (55°F)
Dewpoint: 11.0°C (52°F) [RH = 88%]
Pressure (altimeter): 29.76 inches Hg (1008.0 mb)
Winds: from the E (100 degrees) at 12 MPH (10 knots; 5.1 m/s)
Visibility: 6 or more miles (10+ km)
Ceiling: 8000 feet AGL
Clouds: few clouds at 5000 feet AGL
broken clouds at 8000 feet AGL
Weather: no significant weather observed at this time

METAR text: ENBO 201950Z 09009KT 9999 FEW050 BKN075 14/11 Q1008 TEMPO SHRA FEW020CB
Conditions at: ENBO (BODO VI (CIV/MIL, NO) observed 1950 UTC 20 August 2019
Temperature: 14.0°C (57°F)
Dewpoint: 11.0°C (52°F) [RH = 82%]
Pressure (altimeter): 29.76 inches Hg (1008.0 mb)
Winds: from the E (90 degrees) at 10 MPH (9 knots; 4.6 m/s)
Visibility: 6 or more miles (10+ km)
Ceiling: 7500 feet AGL
Clouds: few clouds at 5000 feet AGL
broken clouds at 7500 feet AGL
Weather: no significant weather observed at this time

METAR text: ENBO 201920Z 09007KT 9999 FEW010 BKN075 14/12 Q1008 TEMPO SHRA FEW020CB
Conditions at: ENBO (BODO VI (CIV/MIL, NO) observed 1920 UTC 20 August 2019
Temperature: 14.0°C (57°F)
Dewpoint: 12.0°C (54°F) [RH = 88%]
Pressure (altimeter): 29.76 inches Hg (1008.0 mb)
Winds: from the E (90 degrees) at 8 MPH (7 knots; 3.6 m/s)
Visibility: 6 or more miles (10+ km)
Ceiling: 7500 feet AGL
Clouds: few clouds at 1000 feet AGL
broken clouds at 7500 feet AGL
Weather: no significant weather observed at this time

METAR text: ENBO 201850Z 10006KT 9999 -SHRA FEW012 BKN055 14/12 Q1009 TEMPO SHRA FEW020CB
Conditions at: ENBO (BODO VI (CIV/MIL, NO) observed 1850 UTC 20 August 2019
Temperature: 14.0°C (57°F)
Dewpoint: 12.0°C (54°F) [RH = 88%]
Pressure (altimeter): 29.79 inches Hg (1009.0 mb)
Winds: from the E (100 degrees) at 7 MPH (6 knots; 3.1 m/s)
Visibility: 6 or more miles (10+ km)
Ceiling: 5500 feet AGL
Clouds: few clouds at 1200 feet AGL
broken clouds at 5500 feet AGL
Weather: -SHRA  (light rain showers)

METAR text: ENBO 201820Z 06005KT 9999 FEW015 SCT055 BKN070 14/12 Q1008 TEMPO SHRA FEW020CB
Conditions at: ENBO (BODO VI (CIV/MIL, NO) observed 1820 UTC 20 August 2019
Temperature: 14.0°C (57°F)
Dewpoint: 12.0°C (54°F) [RH = 88%]
Pressure (altimeter): 29.76 inches Hg (1008.0 mb)
Winds: from the ENE (60 degrees) at 6 MPH (5 knots; 2.6 m/s)
Visibility: 6 or more miles (10+ km)
Ceiling: 7000 feet AGL
Clouds: few clouds at 1500 feet AGL
scattered clouds at 5500 feet AGL
broken clouds at 7000 feet AGL
Weather: no significant weather observed at this time

METAR text: ENBO 201750Z 03004KT 9999 FEW015 SCT030 BKN070 15/12 Q1008 TEMPO SHRA FEW020CB
Conditions at: ENBO (BODO VI (CIV/MIL, NO) observed 1750 UTC 20 August 2019
Temperature: 15.0°C (59°F)
Dewpoint: 12.0°C (54°F) [RH = 82%]
Pressure (altimeter): 29.76 inches Hg (1008.0 mb)
Winds: from the NNE (30 degrees) at 5 MPH (4 knots; 2.1 m/s)
Visibility: 6 or more miles (10+ km)
Ceiling: 7000 feet AGL
Clouds: few clouds at 1500 feet AGL
scattered clouds at 3000 feet AGL
broken clouds at 7000 feet AGL
Weather: no significant weather observed at this time

METAR text: ENBO 201720Z 31003KT 9999 FEW012 SCT020 BKN070 15/11 Q1008 TEMPO SHRA FEW020CB
Conditions at: ENBO (BODO VI (CIV/MIL, NO) observed 1720 UTC 20 August 2019
Temperature: 15.0°C (59°F)
Dewpoint: 11.0°C (52°F) [RH = 77%]
Pressure (altimeter): 29.76 inches Hg (1008.0 mb)
Winds: from the NW (310 degrees) at 3 MPH (3 knots; 1.5 m/s)
Visibility: 6 or more miles (10+ km)
Ceiling: 7000 feet AGL
Clouds: few clouds at 1200 feet AGL
scattered clouds at 2000 feet AGL
broken clouds at 7000 feet AGL
Weather: no significant weather observed at this time

METAR text: ENBO 201650Z 27006KT 9999 FEW012 SCT020 BKN080 15/12 Q1008 TEMPO SHRA FEW020CB
Conditions at: ENBO (BODO VI (CIV/MIL, NO) observed 1650 UTC 20 August 2019
Temperature: 15.0°C (59°F)
Dewpoint: 12.0°C (54°F) [RH = 82%]
Pressure (altimeter): 29.76 inches Hg (1008.0 mb)
Winds: from the W (270 degrees) at 7 MPH (6 knots; 3.1 m/s)
Visibility: 6 or more miles (10+ km)
Ceiling: 8000 feet AGL
Clouds: few clouds at 1200 feet AGL
scattered clouds at 2000 feet AGL
broken clouds at 8000 feet AGL
Weather: no significant weather observed at this time

METAR text: ENBO 201620Z 27006KT 9999 FEW005 FEW025TCU BKN080 15/11 Q1008 TEMPO SHRA FEW020CB
Conditions at: ENBO (BODO VI (CIV/MIL, NO) observed 1620 UTC 20 August 2019
Temperature: 15.0°C (59°F)
Dewpoint: 11.0°C (52°F) [RH = 77%]
Pressure (altimeter): 29.76 inches Hg (1008.0 mb)
Winds: from the W (270 degrees) at 7 MPH (6 knots; 3.1 m/s)
Visibility: 6 or more miles (10+ km)
Ceiling: 8000 feet AGL
Clouds: few clouds at 500 feet AGL
few clouds at 2500 feet AGL
broken clouds at 8000 feet AGL
Weather: no significant weather observed at this time

METAR text: ENBO 201550Z 26005KT 9999 FEW005 FEW025TCU BKN080 16/12 Q1008 TEMPO SHRA FEW020CB
Conditions at: ENBO (BODO VI (CIV/MIL, NO) observed 1550 UTC 20 August 2019
Temperature: 16.0°C (61°F)
Dewpoint: 12.0°C (54°F) [RH = 77%]
Pressure (altimeter): 29.76 inches Hg (1008.0 mb)
Winds: from the W (260 degrees) at 6 MPH (5 knots; 2.6 m/s)
Visibility: 6 or more miles (10+ km)
Ceiling: 8000 feet AGL
Clouds: few clouds at 500 feet AGL
few clouds at 2500 feet AGL
broken clouds at 8000 feet AGL
Weather: no significant weather observed at this time

METAR text: ENBO 201520Z 29003KT 9999 FEW005 FEW025CB BKN080 15/12 Q1008 TEMPO SHRA SCT020CB
Conditions at: ENBO (BODO VI (CIV/MIL, NO) observed 1520 UTC 20 August 2019
Temperature: 15.0°C (59°F)
Dewpoint: 12.0°C (54°F) [RH = 82%]
Pressure (altimeter): 29.76 inches Hg (1008.0 mb)
Winds: from the WNW (290 degrees) at 3 MPH (3 knots; 1.5 m/s)
Visibility: 6 or more miles (10+ km)
Ceiling: 8000 feet AGL
Clouds: few clouds at 500 feet AGL
few clouds at 2500 feet AGL
broken clouds at 8000 feet AGL
Weather: no significant weather observed at this time

METAR text: ENBO 201450Z 29003KT 9999 VCSH FEW005 FEW025CB BKN065 16/12 Q1008 TEMPO SHRA SCT020CB
Conditions at: ENBO (BODO VI (CIV/MIL, NO) observed 1450 UTC 20 August 2019
Temperature: 16.0°C (61°F)
Dewpoint: 12.0°C (54°F) [RH = 77%]
Pressure (altimeter): 29.76 inches Hg (1008.0 mb)
Winds: from the WNW (290 degrees) at 3 MPH (3 knots; 1.5 m/s)
Visibility: 6 or more miles (10+ km)
Ceiling: 6500 feet AGL
Clouds: few clouds at 500 feet AGL
few clouds at 2500 feet AGL
broken clouds at 6500 feet AGL
Weather: VCSH  (showers in vicinity)

METAR text: ENBO 201420Z 30003KT 9999 VCSH FEW005 FEW025CB BKN050 16/12 Q1008 TEMPO SHRA SCT020CB
Conditions at: ENBO (BODO VI (CIV/MIL, NO) observed 1420 UTC 20 August 2019
Temperature: 16.0°C (61°F)
Dewpoint: 12.0°C (54°F) [RH = 77%]
Pressure (altimeter): 29.76 inches Hg (1008.0 mb)
Winds: from the WNW (300 degrees) at 3 MPH (3 knots; 1.5 m/s)
Visibility: 6 or more miles (10+ km)
Ceiling: 5000 feet AGL
Clouds: few clouds at 500 feet AGL
few clouds at 2500 feet AGL
broken clouds at 5000 feet AGL
Weather: VCSH  (showers in vicinity)

METAR text: ENBO 201350Z 29005KT 9999 -SHRA FEW005 FEW025CB BKN045 14/12 Q1007 RESHRA TEMPO SHRA SCT020CB
Conditions at: ENBO (BODO VI (CIV/MIL, NO) observed 1350 UTC 20 August 2019
Temperature: 14.0°C (57°F)
Dewpoint: 12.0°C (54°F) [RH = 88%]
Pressure (altimeter): 29.73 inches Hg (1007.0 mb)
Winds: from the WNW (290 degrees) at 6 MPH (5 knots; 2.6 m/s)
Visibility: 6 or more miles (10+ km)
Ceiling: 4500 feet AGL
Clouds: few clouds at 500 feet AGL
few clouds at 2500 feet AGL
broken clouds at 4500 feet AGL
Weather: -SHRA  (light rain showers)

METAR text: ENBO 201320Z 01005KT 9999 VCSH FEW018 FEW025TCU BKN065 16/11 Q1007 NOSIG
Conditions at: ENBO (BODO VI (CIV/MIL, NO) observed 1320 UTC 20 August 2019
Temperature: 16.0°C (61°F)
Dewpoint: 11.0°C (52°F) [RH = 72%]
Pressure (altimeter): 29.73 inches Hg (1007.0 mb)
Winds: from the N (10 degrees) at 6 MPH (5 knots; 2.6 m/s)
Visibility: 6 or more miles (10+ km)
Ceiling: 6500 feet AGL
Clouds: few clouds at 1800 feet AGL
few clouds at 2500 feet AGL
broken clouds at 6500 feet AGL
Weather: VCSH  (showers in vicinity)

METAR text: ENBO 201250Z 01006KT 9999 VCSH FEW018 FEW025TCU BKN080 17/11 Q1007 NOSIG
Conditions at: ENBO (BODO VI (CIV/MIL, NO) observed 1250 UTC 20 August 2019
Temperature: 17.0°C (63°F)
Dewpoint: 11.0°C (52°F) [RH = 68%]
Pressure (altimeter): 29.73 inches Hg (1007.0 mb)
Winds: from the N (10 degrees) at 7 MPH (6 knots; 3.1 m/s)
Visibility: 6 or more miles (10+ km)
Ceiling: 8000 feet AGL
Clouds: few clouds at 1800 feet AGL
few clouds at 2500 feet AGL
broken clouds at 8000 feet AGL
Weather: VCSH  (showers in vicinity)

METAR text: ENBO 201220Z 31003KT 9999 FEW018 FEW035TCU BKN080 17/11 Q1007 NOSIG
Conditions at: ENBO (BODO VI (CIV/MIL, NO) observed 1220 UTC 20 August 2019
Temperature: 17.0°C (63°F)
Dewpoint: 11.0°C (52°F) [RH = 68%]
Pressure (altimeter): 29.73 inches Hg (1007.0 mb)
Winds: from the NW (310 degrees) at 3 MPH (3 knots; 1.5 m/s)
Visibility: 6 or more miles (10+ km)
Ceiling: 8000 feet AGL
Clouds: few clouds at 1800 feet AGL
few clouds at 3500 feet AGL
broken clouds at 8000 feet AGL
Weather: no significant weather observed at this time

METAR text: ENBO 201150Z 31004KT 9999 FEW020 FEW035TCU BKN070 16/11 Q1006 NOSIG
Conditions at: ENBO (BODO VI (CIV/MIL, NO) observed 1150 UTC 20 August 2019
Temperature: 16.0°C (61°F)
Dewpoint: 11.0°C (52°F) [RH = 72%]
Pressure (altimeter): 29.70 inches Hg (1006.0 mb)
Winds: from the NW (310 degrees) at 5 MPH (4 knots; 2.1 m/s)
Visibility: 6 or more miles (10+ km)
Ceiling: 7000 feet AGL
Clouds: few clouds at 2000 feet AGL
few clouds at 3500 feet AGL
broken clouds at 7000 feet AGL
Weather: no significant weather observed at this time

METAR text: ENBO 201120Z 28004KT 9999 FEW025 FEW035TCU BKN070 16/11 Q1006 NOSIG
Conditions at: ENBO (BODO VI (CIV/MIL, NO) observed 1120 UTC 20 August 2019
Temperature: 16.0°C (61°F)
Dewpoint: 11.0°C (52°F) [RH = 72%]
Pressure (altimeter): 29.70 inches Hg (1006.0 mb)
Winds: from the W (280 degrees) at 5 MPH (4 knots; 2.1 m/s)
Visibility: 6 or more miles (10+ km)
Ceiling: 7000 feet AGL
Clouds: few clouds at 2500 feet AGL
few clouds at 3500 feet AGL
broken clouds at 7000 feet AGL
Weather: no significant weather observed at this time

METAR text: ENBO 201050Z 27005KT 9999 FEW025 FEW040TCU BKN080 16/11 Q1006 NOSIG
Conditions at: ENBO (BODO VI (CIV/MIL, NO) observed 1050 UTC 20 August 2019
Temperature: 16.0°C (61°F)
Dewpoint: 11.0°C (52°F) [RH = 72%]
Pressure (altimeter): 29.70 inches Hg (1006.0 mb)
Winds: from the W (270 degrees) at 6 MPH (5 knots; 2.6 m/s)
Visibility: 6 or more miles (10+ km)
Ceiling: 8000 feet AGL
Clouds: few clouds at 2500 feet AGL
few clouds at 4000 feet AGL
broken clouds at 8000 feet AGL
Weather: no significant weather observed at this time

METAR text: ENBO 201020Z 29003KT 230V350 9999 FEW025 BKN100 17/11 Q1006 NOSIG
Conditions at: ENBO (BODO VI (CIV/MIL, NO) observed 1020 UTC 20 August 2019
Temperature: 17.0°C (63°F)
Dewpoint: 11.0°C (52°F) [RH = 68%]
Pressure (altimeter): 29.70 inches Hg (1006.0 mb)
Winds: from the WNW (290 degrees) at 3 MPH (3 knots; 1.5 m/s)
Visibility: 6 or more miles (10+ km)
Ceiling: 10000 feet AGL
Clouds: few clouds at 2500 feet AGL
broken clouds at 10000 feet AGL
Weather: no significant weather observed at this time

METAR text: ENBO 200950Z VRB03KT 9999 FEW025 BKN090 17/11 Q1005 NOSIG
Conditions at: ENBO (BODO VI (CIV/MIL, NO) observed 0950 UTC 20 August 2019
Temperature: 17.0°C (63°F)
Dewpoint: 11.0°C (52°F) [RH = 68%]
Pressure (altimeter): 29.68 inches Hg (1005.0 mb)
Winds: variable direction winds at 3 MPH (3 knots; 1.5 m/s)
Visibility: 6 or more miles (10+ km)
Ceiling: 9000 feet AGL
Clouds: few clouds at 2500 feet AGL
broken clouds at 9000 feet AGL
Weather: no significant weather observed at this time

METAR text: ENBO 200920Z 19003KT 120V250 9999 FEW020 SCT080 16/11 Q1005 NOSIG
Conditions at: ENBO (BODO VI (CIV/MIL, NO) observed 0920 UTC 20 August 2019
Temperature: 16.0°C (61°F)
Dewpoint: 11.0°C (52°F) [RH = 72%]
Pressure (altimeter): 29.68 inches Hg (1005.0 mb)
Winds: from the S (190 degrees) at 3 MPH (3 knots; 1.5 m/s)
Visibility: 6 or more miles (10+ km)
Ceiling: at least 12,000 feet AGL
Clouds: few clouds at 2000 feet AGL
scattered clouds at 8000 feet AGL
Weather: no significant weather observed at this time

METAR text: ENBO 200850Z 13004KT 9999 FEW020 SCT075 16/11 Q1005 NOSIG
Conditions at: ENBO (BODO VI (CIV/MIL, NO) observed 0850 UTC 20 August 2019
Temperature: 16.0°C (61°F)
Dewpoint: 11.0°C (52°F) [RH = 72%]
Pressure (altimeter): 29.68 inches Hg (1005.0 mb)
Winds: from the SE (130 degrees) at 5 MPH (4 knots; 2.1 m/s)
Visibility: 6 or more miles (10+ km)
Ceiling: at least 12,000 feet AGL
Clouds: few clouds at 2000 feet AGL
scattered clouds at 7500 feet AGL
Weather: no significant weather observed at this time

METAR text: ENBO 200820Z 11006KT 9999 FEW015 16/11 Q1005 NOSIG
Conditions at: ENBO (BODO VI (CIV/MIL, NO) observed 0820 UTC 20 August 2019
Temperature: 16.0°C (61°F)
Dewpoint: 11.0°C (52°F) [RH = 72%]
Pressure (altimeter): 29.68 inches Hg (1005.0 mb)
Winds: from the ESE (110 degrees) at 7 MPH (6 knots; 3.1 m/s)
Visibility: 6 or more miles (10+ km)
Ceiling: at least 12,000 feet AGL
Clouds: few clouds at 1500 feet AGL
Weather: no significant weather observed at this time

METAR text: ENBO 200750Z 13004KT 080V180 9999 FEW010 SCT040 15/11 Q1004 NOSIG
Conditions at: ENBO (BODO VI (CIV/MIL, NO) observed 0750 UTC 20 August 2019
Temperature: 15.0°C (59°F)
Dewpoint: 11.0°C (52°F) [RH = 77%]
Pressure (altimeter): 29.65 inches Hg (1004.0 mb)
Winds: from the SE (130 degrees) at 5 MPH (4 knots; 2.1 m/s)
Visibility: 6 or more miles (10+ km)
Ceiling: at least 12,000 feet AGL
Clouds: few clouds at 1000 feet AGL
scattered clouds at 4000 feet AGL
Weather: no significant weather observed at this time

METAR text: ENBO 200720Z 13004KT 9999 FEW008 BKN040 14/12 Q1004 NOSIG
Conditions at: ENBO (BODO VI (CIV/MIL, NO) observed 0720 UTC 20 August 2019
Temperature: 14.0°C (57°F)
Dewpoint: 12.0°C (54°F) [RH = 88%]
Pressure (altimeter): 29.65 inches Hg (1004.0 mb)
Winds: from the SE (130 degrees) at 5 MPH (4 knots; 2.1 m/s)
Visibility: 6 or more miles (10+ km)
Ceiling: 4000 feet AGL
Clouds: few clouds at 800 feet AGL
broken clouds at 4000 feet AGL
Weather: no significant weather observed at this time

METAR text: ENBO 200650Z 16004KT 9999 FEW008 SCT040 15/12 Q1004 NOSIG
Conditions at: ENBO (BODO VI (CIV/MIL, NO) observed 0650 UTC 20 August 2019
Temperature: 15.0°C (59°F)
Dewpoint: 12.0°C (54°F) [RH = 82%]
Pressure (altimeter): 29.65 inches Hg (1004.0 mb)
Winds: from the SSE (160 degrees) at 5 MPH (4 knots; 2.1 m/s)
Visibility: 6 or more miles (10+ km)
Ceiling: at least 12,000 feet AGL
Clouds: few clouds at 800 feet AGL
scattered clouds at 4000 feet AGL
Weather: no significant weather observed at this time

METAR text: ENBO 200620Z 16005KT 9999 FEW008 SCT060 14/12 Q1004 NOSIG
Conditions at: ENBO (BODO VI (CIV/MIL, NO) observed 0620 UTC 20 August 2019
Temperature: 14.0°C (57°F)
Dewpoint: 12.0°C (54°F) [RH = 88%]
Pressure (altimeter): 29.65 inches Hg (1004.0 mb)
Winds: from the SSE (160 degrees) at 6 MPH (5 knots; 2.6 m/s)
Visibility: 6 or more miles (10+ km)
Ceiling: at least 12,000 feet AGL
Clouds: few clouds at 800 feet AGL
scattered clouds at 6000 feet AGL
Weather: no significant weather observed at this time

METAR text: ENBO 200550Z 17005KT 030V250 9999 FEW007 BKN015 13/11 Q1004 NOSIG
Conditions at: ENBO (BODO VI (CIV/MIL, NO) observed 0550 UTC 20 August 2019
Temperature: 13.0°C (55°F)
Dewpoint: 11.0°C (52°F) [RH = 88%]
Pressure (altimeter): 29.65 inches Hg (1004.0 mb)
Winds: from the S (170 degrees) at 6 MPH (5 knots; 2.6 m/s)
Visibility: 6 or more miles (10+ km)
Ceiling: 1500 feet AGL
Clouds: few clouds at 700 feet AGL
broken clouds at 1500 feet AGL
Weather: no significant weather observed at this time

METAR text: ENBO 200520Z 16005KT 100V260 9999 FEW006 BKN016 13/12 Q1003 NOSIG
Conditions at: ENBO (BODO VI (CIV/MIL, NO) observed 0520 UTC 20 August 2019
Temperature: 13.0°C (55°F)
Dewpoint: 12.0°C (54°F) [RH = 94%]
Pressure (altimeter): 29.62 inches Hg (1003.0 mb)
Winds: from the SSE (160 degrees) at 6 MPH (5 knots; 2.6 m/s)
Visibility: 6 or more miles (10+ km)
Ceiling: 1600 feet AGL
Clouds: few clouds at 600 feet AGL
broken clouds at 1600 feet AGL
Weather: no significant weather observed at this time

METAR text: ENBO 200450Z 17004KT 9999 FEW006 BKN014 13/11 Q1003 BECMG SCT015
Conditions at: ENBO (BODO VI (CIV/MIL, NO) observed 0450 UTC 20 August 2019
Temperature: 13.0°C (55°F)
Dewpoint: 11.0°C (52°F) [RH = 88%]
Pressure (altimeter): 29.62 inches Hg (1003.0 mb)
Winds: from the S (170 degrees) at 5 MPH (4 knots; 2.1 m/s)
Visibility: 6 or more miles (10+ km)
Ceiling: 1400 feet AGL
Clouds: few clouds at 600 feet AGL
broken clouds at 1400 feet AGL
Weather: no significant weather observed at this time

METAR text: ENBO 200420Z 18004KT 9999 FEW007 BKN012 13/11 Q1003 BECMG SCT015
Conditions at: ENBO (BODO VI (CIV/MIL, NO) observed 0420 UTC 20 August 2019
Temperature: 13.0°C (55°F)
Dewpoint: 11.0°C (52°F) [RH = 88%]
Pressure (altimeter): 29.62 inches Hg (1003.0 mb)
Winds: from the S (180 degrees) at 5 MPH (4 knots; 2.1 m/s)
Visibility: 6 or more miles (10+ km)
Ceiling: 1200 feet AGL
Clouds: few clouds at 700 feet AGL
broken clouds at 1200 feet AGL
Weather: no significant weather observed at this time

METAR text: ENBO 200350Z 21004KT 9999 FEW005 BKN012 13/12 Q1002 BECMG SCT015
Conditions at: ENBO (BODO VI (CIV/MIL, NO) observed 0350 UTC 20 August 2019
Temperature: 13.0°C (55°F)
Dewpoint: 12.0°C (54°F) [RH = 94%]
Pressure (altimeter): 29.59 inches Hg (1002.0 mb)
Winds: from the SSW (210 degrees) at 5 MPH (4 knots; 2.1 m/s)
Visibility: 6 or more miles (10+ km)
Ceiling: 1200 feet AGL
Clouds: few clouds at 500 feet AGL
broken clouds at 1200 feet AGL
Weather: no significant weather observed at this time

METAR text: ENBO 200320Z 22006KT 9999 FEW005 BKN010 13/11 Q1002
Conditions at: ENBO (BODO VI (CIV/MIL, NO) observed 0320 UTC 20 August 2019
Temperature: 13.0°C (55°F)
Dewpoint: 11.0°C (52°F) [RH = 88%]
Pressure (altimeter): 29.59 inches Hg (1002.0 mb)
Winds: from the SW (220 degrees) at 7 MPH (6 knots; 3.1 m/s)
Visibility: 6 or more miles (10+ km)
Ceiling: 1000 feet AGL
Clouds: few clouds at 500 feet AGL
broken clouds at 1000 feet AGL
Weather: no significant weather observed at this time

METAR text: ENBO 200250Z 22003KT 9999 FEW005 BKN009 13/11 Q1002
Conditions at: ENBO (BODO VI (CIV/MIL, NO) observed 0250 UTC 20 August 2019
Temperature: 13.0°C (55°F)
Dewpoint: 11.0°C (52°F) [RH = 88%]
Pressure (altimeter): 29.59 inches Hg (1002.0 mb)
Winds: from the SW (220 degrees) at 3 MPH (3 knots; 1.5 m/s)
Visibility: 6 or more miles (10+ km)
Ceiling: 900 feet AGL
Clouds: few clouds at 500 feet AGL
broken clouds at 900 feet AGL
Weather: no significant weather observed at this time

METAR text: ENBO 200150Z 25005KT 9999 FEW003 BKN008 13/11 Q1002
Conditions at: ENBO (BODO VI (CIV/MIL, NO) observed 0150 UTC 20 August 2019
Temperature: 13.0°C (55°F)
Dewpoint: 11.0°C (52°F) [RH = 88%]
Pressure (altimeter): 29.59 inches Hg (1002.0 mb)
Winds: from the WSW (250 degrees) at 6 MPH (5 knots; 2.6 m/s)
Visibility: 6 or more miles (10+ km)
Ceiling: 800 feet AGL
Clouds: few clouds at 300 feet AGL
broken clouds at 800 feet AGL
Weather: no significant weather observed at this time

Forecast for: ENBO (BODO VI (CIV/MIL, NO)
Text: TAF ENBO 2112/2212 22018KT 9999 FEW015TCU BKN040
Forecast period: 1200 to 1400 UTC 21 August 2019
Forecast type: FROM: standard forecast or significant change
Winds: from the SW (220 degrees) at 21 MPH (18 knots; 9.3 m/s)
Visibility: 6 or more miles 10+ km)
Ceiling: 4000 feet AGL
Clouds: few clouds at 1500 feet AGL
broken clouds at 4000 feet AGL
Weather: no significant weather forecast for this period
Text: TEMPO 2112/2212 SHRA BKN020CB
Forecast period: 1200 UTC 21 August 2019 to 1200 UTC 22 August 2019
Forecast type: TEMPORARY: The following changes expected for less than half the time period
Visibility: missing
Ceiling: 2000 feet AGL
Clouds: broken clouds at 2000 feet AGL
Weather: SHRA  (rain showers)
Text: BECMG 2114/2117 30008KT
Forecast period: 1400 UTC 21 August 2019 to 1200 UTC 22 August 2019
Forecast type: BECOMING: Conditions expected to become as follows by 1700 UTC 21 August 2019
Winds: from the WNW (300 degrees) at 9 MPH (8 knots; 4.1 m/s)
Visibility: 6 or more miles 10+ km)
Ceiling: 4000 feet AGL
Clouds: few clouds at 1500 feet AGL
broken clouds at 4000 feet AGL
Weather: no significant weather forecast for this period
Text: TEMPO 2115/2124 SCT008 BKN014
Forecast period: 1500 UTC 21 August 2019 to 0000 UTC 22 August 2019
Forecast type: TEMPORARY: The following changes expected for less than half the time period
Visibility: missing
Ceiling: 1400 feet AGL
Clouds: scattered clouds at 800 feet AGL
broken clouds at 1400 feet AGL
Weather: no significant weather forecast for this period